FranceFixed distance
Luchon Aneto Trail - L'Ultra Lat
9–10 Jul2022
Distance
85km
Finishers
170157 men13 women
Winning time
10:27:06h
Median pace
5.27km/h
Pace distribution
170 finishers · 4.37–8.13 km/h · mean 5.49
Every finisher ran the same 85 km course, so these paces are directly comparable.
Histogram of finisher pace. 170 finishers ranged from 4.37 to 8.13 kilometres per hour, with a mean of 5.49 and a median of 5.27. The busiest band is 4.5 to 5.0 kilometres per hour, with 48 finishers.
Results
Ranks 1–50 of 170
| Rank | Runner | Time | Pace | Cat. | Placing |
|---|---|---|---|---|---|
| 1 | Team Torto | 10:27:06h | 8.13 | M35 | 1st M · 1st M35 |
| 2 | Tarbes Pyrénées Athlét... | 10:29:02h | 8.11 | M23 | 2nd M · 1st M23 |
| 3 | Esclops D'Azun | 10:49:43h | 7.85 | MU23 | 3rd M · 1st MU23 |
| 4 | Team Rmind / Sport2000... | 11:18:50h | 7.51 | M23 | 4th M · 2nd M23 |
| 5 | les Coureurs du Soubes... | 11:26:36h | 7.43 | M23 | 5th M · 3rd M23 |
| 6 | 11:30:31h | 7.39 | M23 | 6th M · 4th M23 | |
| 7 | *Quimper | 11:42:31h | 7.26 | M23 | 7th M · 5th M23 |
| 8 | Sara Korrika | 11:46:36h | 7.22 | M23 | 8th M · 6th M23 |
| 9 | *Bidart | 11:53:27h | 7.15 | M23 | 9th M · 7th M23 |
| 10 | 12:02:57h | 7.05 | M45 | 10th M · 1st M45 | |
| 11 | Cima Pays D'Auray | 12:07:09h | 7.01 | M35 | 11th M · 2nd M35 |
| 12 | 12:07:53h | 7.01 | M23 | 12th M · 8th M23 | |
| 13 | Pays Basque Athlétisme... | 12:20:57h | 6.88 | M23 | 13th M · 9th M23 |
| 14 | Longue Jogging | 12:32:46h | 6.78 | M40 | 14th M · 1st M40 |
| 15 | Insa Toulouse | 12:38:04h | 6.73 | M35 | 15th M · 3rd M35 |
| 16 | Raid Aventure Pays de VIE | 12:43:01h | 6.68 | M23 | 16th M · 10th M23 |
| 17 | 12:48:34h | 6.64 | M35 | 17th M · 4th M35 | |
| 18 | Esclops D'Azun | 12:51:28h | 6.61 | W23 | 1st F · 1st W23 |
| 19 | *La Chaize-Le-Vicomte | 13:03:53h | 6.51 | M40 | 18th M · 2nd M40 |
| 20 | 13:10:13h | 6.45 | M40 | 19th M · 3rd M40 | |
| 21 | Triathlon Club Nantais | 13:11:24h | 6.44 | M23 | 20th M · 11th M23 |
| 22 | CAF Toulouse | 13:13:12h | 6.43 | M23 | 21st M · 12th M23 |
| 23 | Team Sobhisport Nantes | 13:17:10h | 6.40 | M50 | 22nd M · 1st M50 |
| 24 | 13:18:54h | 6.38 | M23 | 23rd M · 13th M23 | |
| 25 | *Saint-Gervais-En-Belin | 13:19:22h | 6.38 | M23 | 24th M · 14th M23 |
| 26 | les Traileurs de la Po... | 13:20:42h | 6.37 | M45 | 25th M · 2nd M45 |
| 27 | 13:25:59h | 6.33 | M35 | 26th M · 5th M35 | |
| 28 | Givrés de NAY | 13:36:07h | 6.25 | M35 | 27th M · 6th M35 |
| 29 | UCR Saint Justin | 13:38:39h | 6.23 | M40 | 28th M · 4th M40 |
| 30 | 13:41:26h | 6.21 | M23 | 29th M · 15th M23 | |
| 31 | *Saint-Pierre | 13:41:50h | 6.21 | M23 | 30th M · 16th M23 |
| 32 | 35 ÈME RAP | 13:44:23h | 6.19 | M35 | 31st M · 7th M35 |
| 33 | 13:49:12h | 6.15 | M35 | 32nd M · 8th M35 | |
| 34 | Rapv | 13:49:34h | 6.15 | M23 | 33rd M · 17th M23 |
| 35 | Hamsters du Rail de la... | 13:51:07h | 6.14 | M40 | 34th M · 5th M40 |
| 36 | *Colomiers | 13:52:29h | 6.13 | M40 | 35th M · 6th M40 |
| 37 | 13:59:24h | 6.08 | — | 36th M | |
| 38 | TPA | 14:00:03h | 6.07 | — | 37th M |
| 39 | Viroflay Running Trail | 14:00:21h | 6.07 | M23 | 38th M · 18th M23 |
| 40 | 14:03:02h | 6.05 | M35 | 39th M · 9th M35 | |
| 41 | 14:03:26h | 6.05 | M35 | 40th M · 10th M35 | |
| 42 | Team Oloron Triathlon | 14:03:53h | 6.04 | M23 | 41st M · 19th M23 |
| 43 | Sport Nature Chauvigny 86 | 14:05:38h | 6.03 | M35 | 42nd M · 11th M35 |
| 44 | Uglow / Trek-King Outdoor | 14:05:45h | 6.03 | M35 | 43rd M · 12th M35 |
| 45 | Usal Skialpinisme | 14:09:58h | 6.00 | M23 | 44th M · 20th M23 |
| 46 | Coureurs du Soubestre ... | 14:14:10h | 5.97 | M35 | 45th M · 13th M35 |
| 47 | Ganerantz Mendi Taldea | 14:16:49h | 5.95 | W45 | 2nd F · 1st W45 |
| 48 | AB Trail | 14:29:54h | 5.86 | W23 | 3rd F · 2nd W23 |
| 49 | ASM PAU | 14:31:25h | 5.85 | M23 | 46th M · 21st M23 |
| 50 | Team Bouconne | 14:38:59h | 5.80 | W35 | 4th F · 1st W35 |
- 1Team Torto1st M · 1st M35Time10:27:06hPace8.13Cat.M35
- 2Tarbes Pyrénées Athlét...2nd M · 1st M23Time10:29:02hPace8.11Cat.M23
- 3Esclops D'Azun3rd M · 1st MU23Time10:49:43hPace7.85Cat.MU23
- 4Team Rmind / Sport2000...4th M · 2nd M23Time11:18:50hPace7.51Cat.M23
- 5les Coureurs du Soubes...5th M · 3rd M23Time11:26:36hPace7.43Cat.M23
- 66th M · 4th M23Time11:30:31hPace7.39Cat.M23
- 7*Quimper7th M · 5th M23Time11:42:31hPace7.26Cat.M23
- 8Sara Korrika8th M · 6th M23Time11:46:36hPace7.22Cat.M23
- 9*Bidart9th M · 7th M23Time11:53:27hPace7.15Cat.M23
- 1010th M · 1st M45Time12:02:57hPace7.05Cat.M45
- 11Cima Pays D'Auray11th M · 2nd M35Time12:07:09hPace7.01Cat.M35
- 1212th M · 8th M23Time12:07:53hPace7.01Cat.M23
- 13Pays Basque Athlétisme...13th M · 9th M23Time12:20:57hPace6.88Cat.M23
- 14Longue Jogging14th M · 1st M40Time12:32:46hPace6.78Cat.M40
- 15Insa Toulouse15th M · 3rd M35Time12:38:04hPace6.73Cat.M35
- 16Raid Aventure Pays de VIE16th M · 10th M23Time12:43:01hPace6.68Cat.M23
- 1717th M · 4th M35Time12:48:34hPace6.64Cat.M35
- 18Esclops D'Azun1st F · 1st W23Time12:51:28hPace6.61Cat.W23
- 19*La Chaize-Le-Vicomte18th M · 2nd M40Time13:03:53hPace6.51Cat.M40
- 2019th M · 3rd M40Time13:10:13hPace6.45Cat.M40
- 21Triathlon Club Nantais20th M · 11th M23Time13:11:24hPace6.44Cat.M23
- 22CAF Toulouse21st M · 12th M23Time13:13:12hPace6.43Cat.M23
- 23Team Sobhisport Nantes22nd M · 1st M50Time13:17:10hPace6.40Cat.M50
- 2423rd M · 13th M23Time13:18:54hPace6.38Cat.M23
- 25*Saint-Gervais-En-Belin24th M · 14th M23Time13:19:22hPace6.38Cat.M23
- 26les Traileurs de la Po...25th M · 2nd M45Time13:20:42hPace6.37Cat.M45
- 2726th M · 5th M35Time13:25:59hPace6.33Cat.M35
- 28Givrés de NAY27th M · 6th M35Time13:36:07hPace6.25Cat.M35
- 29UCR Saint Justin28th M · 4th M40Time13:38:39hPace6.23Cat.M40
- 3029th M · 15th M23Time13:41:26hPace6.21Cat.M23
- 31*Saint-Pierre30th M · 16th M23Time13:41:50hPace6.21Cat.M23
- 3235 ÈME RAP31st M · 7th M35Time13:44:23hPace6.19Cat.M35
- 3332nd M · 8th M35Time13:49:12hPace6.15Cat.M35
- 34Rapv33rd M · 17th M23Time13:49:34hPace6.15Cat.M23
- 35Hamsters du Rail de la...34th M · 5th M40Time13:51:07hPace6.14Cat.M40
- 36*Colomiers35th M · 6th M40Time13:52:29hPace6.13Cat.M40
- 3736th MTime13:59:24hPace6.08
- 38TPA37th MTime14:00:03hPace6.07
- 39Viroflay Running Trail38th M · 18th M23Time14:00:21hPace6.07Cat.M23
- 4039th M · 9th M35Time14:03:02hPace6.05Cat.M35
- 4140th M · 10th M35Time14:03:26hPace6.05Cat.M35
- 42Team Oloron Triathlon41st M · 19th M23Time14:03:53hPace6.04Cat.M23
- 43Sport Nature Chauvigny 8642nd M · 11th M35Time14:05:38hPace6.03Cat.M35
- 44Uglow / Trek-King Outdoor43rd M · 12th M35Time14:05:45hPace6.03Cat.M35
- 45Usal Skialpinisme44th M · 20th M23Time14:09:58hPace6.00Cat.M23
- 46Coureurs du Soubestre ...45th M · 13th M35Time14:14:10hPace5.97Cat.M35
- 47Ganerantz Mendi Taldea2nd F · 1st W45Time14:16:49hPace5.95Cat.W45
- 48AB Trail3rd F · 2nd W23Time14:29:54hPace5.86Cat.W23
- 49ASM PAU46th M · 21st M23Time14:31:25hPace5.85Cat.M23
- 50Team Bouconne4th F · 1st W35Time14:38:59hPace5.80Cat.W35
Showing ranks 1–50 of 170